Time;durP1;ratioP1;P1;durP2;ratioP2;P2;SDS_P1;SDS_P2;PMS_P1;PMS_P2;Temp;Humidity;BMP_temperature;BMP_pressure;BME280_temperature;BME280_humidity;BME280_pressure;Samples;Min_cycle;Max_cycle;Signal;HPM_P1;HPM_P2
2021/04/04 00:00:07;;;;;;;;;;;;;;;-3.76;100.00;101665.31;5051759;28;19925;-70
2021/04/04 00:02:38;;;;;;;;;;;;;;;-3.68;100.00;101663.47;5033925;28;19929;-69
2021/04/04 00:05:05;;;;;;;;;;;;;;;-3.65;100.00;101660.78;5051619;28;20364;-70
2021/04/04 00:07:31;;;;;;;;;;;;;;;-3.68;100.00;101663.47;5051609;28;20281;-70
2021/04/04 00:09:57;;;;;;;;;;;;;;;-3.77;100.00;101666.19;5033837;28;19978;-70
2021/04/04 00:12:23;;;;;;;;;;;;;;;-3.81;100.00;101660.03;5051632;28;19924;-69
2021/04/04 00:14:49;;;;;;;;;;;;;;;-3.84;100.00;101662.72;5051564;28;19925;-69
2021/04/04 00:17:15;;;;;;;;;;;;;;;-3.90;100.00;101658.31;5033421;28;20241;-69
2021/04/04 00:19:40;;;;;;;;;;;;;;;-3.83;100.00;101660.94;5051566;28;19925;-69
2021/04/04 00:22:07;;;;;;;;;;;;;;;-3.82;100.00;101660.94;5051258;28;20434;-69
2021/04/04 00:24:33;;;;;;;;;;;;;;;-3.90;100.00;101660.97;5051519;28;19972;-69
2021/04/04 00:26:59;;;;;;;;;;;;;;;-3.95;100.00;101672.53;5051306;28;19931;-70
2021/04/04 00:29:25;;;;;;;;;;;;;;;-3.98;100.00;101665.47;5051417;28;20384;-69
2021/04/04 00:31:51;;;;;;;;;;;;;;;-3.94;100.00;101661.91;5051437;28;19925;-69
2021/04/04 00:34:16;;;;;;;;;;;;;;;-3.97;100.00;101658.38;5051375;28;20031;-70
2021/04/04 00:36:42;;;;;;;;;;;;;;;-4.04;100.00;101655.75;5051577;28;19925;-70
2021/04/04 00:39:10;;;;;;;;;;;;;;;-4.06;100.00;101660.19;5055063;28;19936;-70
2021/04/04 00:41:36;;;;;;;;;;;;;;;-4.05;100.00;101664.63;5053239;28;19931;-70
2021/04/04 00:44:03;;;;;;;;;;;;;;;-3.97;100.00;101661.88;5052710;28;19924;-70
2021/04/04 00:46:29;;;;;;;;;;;;;;;-3.96;100.00;101666.31;5051808;28;19929;-71
2021/04/04 00:48:55;;;;;;;;;;;;;;;-3.98;100.00;101662.81;5055363;28;19990;-70
2021/04/04 00:51:21;;;;;;;;;;;;;;;-3.93;100.00;101661.00;5038837;28;19928;-71
2021/04/04 00:53:47;;;;;;;;;;;;;;;-3.95;100.00;101661.91;5056182;28;20449;-71
2021/04/04 00:56:14;;;;;;;;;;;;;;;-3.96;100.00;101655.69;5055328;28;20439;-72
2021/04/04 00:58:40;;;;;;;;;;;;;;;-3.92;100.00;101653.91;5051115;28;19986;-69
2021/04/04 01:01:06;;;;;;;;;;;;;;;-3.96;100.00;101665.44;5051321;28;19925;-71
2021/04/04 01:03:32;;;;;;;;;;;;;;;-4.06;100.00;101657.53;5050935;28;19925;-69
2021/04/04 01:06:00;;;;;;;;;;;;;;;-4.09;100.00;101654.00;5033116;28;19931;-69
2021/04/04 01:08:26;;;;;;;;;;;;;;;-4.04;100.00;101653.09;5033099;28;19925;-69
2021/04/04 01:10:52;;;;;;;;;;;;;;;-4.09;100.00;101654.91;5054941;28;20301;-69
2021/04/04 01:13:22;;;;;;;;;;;;;;;-4.17;100.00;101656.69;5054931;28;19929;-69
2021/04/04 01:15:51;;;;;;;;;;;;;;;-4.22;100.00;101655.88;5054478;28;19932;-69
2021/04/04 01:18:22;;;;;;;;;;;;;;;-4.26;100.00;101657.66;5055148;28;20037;-69
2021/04/04 01:20:50;;;;;;;;;;;;;;;-4.26;100.00;101657.66;5054701;28;20359;-69
2021/04/04 01:23:30;;;;;;;;;;;;;;;-4.23;100.00;101662.91;5054783;28;19924;-69
2021/04/04 01:26:11;;;;;;;;;;;;;;;-4.29;100.00;101659.41;5054404;28;19924;-70
2021/04/04 01:28:39;;;;;;;;;;;;;;;-4.34;100.00;101656.81;5054816;28;19924;-69
2021/04/04 01:31:06;;;;;;;;;;;;;;;-4.33;100.00;101655.88;5054912;28;19982;-70
2021/04/04 01:33:34;;;;;;;;;;;;;;;-4.37;100.00;101655.03;5054368;28;20012;-69
2021/04/04 01:36:02;;;;;;;;;;;;;;;-4.40;100.00;101646.22;5054383;28;19931;-69
2021/04/04 01:38:29;;;;;;;;;;;;;;;-4.44;100.00;101641.81;5054400;28;20347;-69
2021/04/04 01:40:56;;;;;;;;;;;;;;;-4.46;100.00;101648.88;5054446;28;19936;-69
2021/04/04 01:43:24;;;;;;;;;;;;;;;-4.49;100.00;101655.09;5054323;28;19925;-69
2021/04/04 01:45:51;;;;;;;;;;;;;;;-4.50;100.00;101645.38;5054148;28;19932;-69
2021/04/04 01:48:18;;;;;;;;;;;;;;;-4.47;100.00;101650.66;5054237;28;20535;-69
2021/04/04 01:50:44;;;;;;;;;;;;;;;-4.43;100.00;101647.09;5054298;28;20019;-69
2021/04/04 01:53:11;;;;;;;;;;;;;;;-4.39;100.00;101648.00;5054355;28;19970;-70
2021/04/04 01:55:38;;;;;;;;;;;;;;;-4.43;100.00;101652.41;5053886;28;19925;-71
2021/04/04 01:58:05;;;;;;;;;;;;;;;-4.40;100.00;101652.38;5054214;28;20385;-69
2021/04/04 02:00:31;;;;;;;;;;;;;;;-4.42;100.00;101648.00;5054180;28;19932;-69
2021/04/04 02:02:58;;;;;;;;;;;;;;;-4.50;100.00;101636.53;5054324;28;20297;-70
2021/04/04 02:05:25;;;;;;;;;;;;;;;-4.54;100.00;101641.84;5053912;28;19932;-70
2021/04/04 02:07:51;;;;;;;;;;;;;;;-4.60;100.00;101639.22;5053661;28;19935;-69
2021/04/04 02:10:18;;;;;;;;;;;;;;;-4.61;100.00;101639.22;5036182;28;19924;-69
2021/04/04 02:12:44;;;;;;;;;;;;;;;-4.62;100.00;101638.34;5053674;28;20312;-69
2021/04/04 02:15:11;;;;;;;;;;;;;;;-4.65;100.00;101632.19;5035883;28;19955;-71
2021/04/04 02:17:39;;;;;;;;;;;;;;;-4.61;100.00;101633.94;5035949;28;19932;-70
2021/04/04 02:20:06;;;;;;;;;;;;;;;-4.65;100.00;101633.09;5053155;28;19995;-71
2021/04/04 02:22:32;;;;;;;;;;;;;;;-4.67;100.00;101632.19;5035277;28;19925;-69
2021/04/04 02:24:58;;;;;;;;;;;;;;;-4.60;100.00;101627.75;5053409;28;19974;-69
2021/04/04 02:27:24;;;;;;;;;;;;;;;-4.57;100.00;101617.13;5053570;28;19925;-69
2021/04/04 02:29:50;;;;;;;;;;;;;;;-4.50;100.00;101615.31;5036161;28;20330;-69
2021/04/04 02:32:17;;;;;;;;;;;;;;;-4.49;100.00;101618.00;5053261;28;19925;-69
2021/04/04 02:34:44;;;;;;;;;;;;;;;-4.54;100.00;101615.34;5053569;28;20074;-70
2021/04/04 02:37:12;;;;;;;;;;;;;;;-4.60;100.00;101614.50;5053038;28;19968;-69
2021/04/04 02:39:41;;;;;;;;;;;;;;;-4.65;100.00;101613.63;5053331;28;20411;-69
2021/04/04 02:42:09;;;;;;;;;;;;;;;-4.69;100.00;101614.53;5053049;28;19971;-69
2021/04/04 02:44:35;;;;;;;;;;;;;;;-4.66;100.00;101602.16;5053271;28;19924;-69
2021/04/04 02:47:03;;;;;;;;;;;;;;;-4.62;100.00;101610.97;5035242;28;19925;-69
2021/04/04 02:49:31;;;;;;;;;;;;;;;-4.58;100.00;101605.66;5053040;28;19925;-69
2021/04/04 02:51:59;;;;;;;;;;;;;;;-4.64;100.00;101597.72;5053172;28;19925;-69
2021/04/04 02:54:26;;;;;;;;;;;;;;;-4.72;100.00;101592.47;5053133;28;19925;-70
2021/04/04 02:56:53;;;;;;;;;;;;;;;-4.77;100.00;101593.34;5052738;28;19929;-70
2021/04/04 02:59:22;;;;;;;;;;;;;;;-4.81;100.00;101600.47;5053175;28;20307;-70
2021/04/04 03:01:48;;;;;;;;;;;;;;;-4.80;100.00;101603.97;5052866;28;19929;-70
2021/04/04 03:04:15;;;;;;;;;;;;;;;-4.81;100.00;101604.84;5053342;28;19932;-70
2021/04/04 03:06:42;;;;;;;;;;;;;;;-4.81;100.00;101596.91;5052608;28;19932;-69
2021/04/04 03:09:09;;;;;;;;;;;;;;;-4.78;100.00;101588.97;5052996;28;20394;-70
2021/04/04 03:11:36;;;;;;;;;;;;;;;-4.74;100.00;101601.31;5034919;28;19940;-70
2021/04/04 03:14:04;;;;;;;;;;;;;;;-4.82;100.00;101601.34;5053017;28;20468;-70
2021/04/04 03:16:30;;;;;;;;;;;;;;;-4.88;100.00;101606.66;5052662;28;20380;-70
2021/04/04 03:18:58;;;;;;;;;;;;;;;-4.83;100.00;101601.34;5052720;28;19932;-70
2021/04/04 03:21:26;;;;;;;;;;;;;;;-4.82;100.00;101596.03;5052798;28;19932;-69
2021/04/04 03:23:52;;;;;;;;;;;;;;;-4.83;100.00;101593.41;5052444;28;20358;-70
2021/04/04 03:26:19;;;;;;;;;;;;;;;-4.90;100.00;101592.53;5052441;28;19929;-70
2021/04/04 03:28:46;;;;;;;;;;;;;;;-4.93;100.00;101593.44;5052758;28;20067;-70
2021/04/04 03:31:14;;;;;;;;;;;;;;;-4.97;100.00;101586.38;5052625;28;19925;-70
2021/04/04 03:33:41;;;;;;;;;;;;;;;-5.00;100.00;101583.72;5051971;28;20334;-70
2021/04/04 03:36:07;;;;;;;;;;;;;;;-5.02;100.00;101585.50;5052157;28;19929;-70
2021/04/04 03:38:34;;;;;;;;;;;;;;;-5.04;100.00;101579.31;5052451;28;19925;-70
2021/04/04 03:41:00;;;;;;;;;;;;;;;-4.98;100.00;101573.13;5052252;28;19978;-69
2021/04/04 03:43:28;;;;;;;;;;;;;;;-4.97;100.00;101577.53;5051795;28;19924;-69
2021/04/04 03:45:57;;;;;;;;;;;;;;;-4.94;100.00;101574.91;5051724;28;19971;-69
2021/04/04 03:48:24;;;;;;;;;;;;;;;-4.92;100.00;101568.72;5052079;28;19932;-69
2021/04/04 03:50:50;;;;;;;;;;;;;;;-4.97;100.00;101577.53;5052211;28;19928;-69
2021/04/04 03:53:20;;;;;;;;;;;;;;;-5.02;100.00;101579.31;5051858;28;19924;-69
2021/04/04 03:55:47;;;;;;;;;;;;;;;-5.07;100.00;101576.69;5051913;28;19952;-69
2021/04/04 03:58:14;;;;;;;;;;;;;;;-5.07;100.00;101566.09;5051906;28;20041;-70
2021/04/04 04:00:40;;;;;;;;;;;;;;;-5.06;100.00;101567.88;5051978;28;19974;-70
2021/04/04 04:03:08;;;;;;;;;;;;;;;-5.10;100.00;101571.41;5051944;28;19932;-69
2021/04/04 04:05:35;;;;;;;;;;;;;;;-5.11;100.00;101569.66;5051568;28;19975;-69
2021/04/04 04:08:02;;;;;;;;;;;;;;;-5.08;100.00;101570.53;5034178;28;19925;-69
2021/04/04 04:10:28;;;;;;;;;;;;;;;-5.07;100.00;101563.44;5051681;28;19932;-69
2021/04/04 04:12:55;;;;;;;;;;;;;;;-5.13;100.00;101567.00;5051602;28;19925;-69
2021/04/04 04:15:21;;;;;;;;;;;;;;;-5.18;100.00;101565.22;5051499;28;20346;-69
2021/04/04 04:17:48;;;;;;;;;;;;;;;-5.23;100.00;101566.13;5033680;28;20152;-70
2021/04/04 04:20:15;;;;;;;;;;;;;;;-5.21;100.00;101569.66;5033864;28;19925;-70
2021/04/04 04:22:41;;;;;;;;;;;;;;;-5.16;100.00;101566.13;5051278;28;19961;-70
2021/04/04 04:25:07;;;;;;;;;;;;;;;-5.15;100.00;101565.25;5051727;28;20024;-70
2021/04/04 04:27:34;;;;;;;;;;;;;;;-5.12;100.00;101562.59;5051230;28;20019;-70
2021/04/04 04:30:00;;;;;;;;;;;;;;;-5.13;100.00;101563.47;5051411;28;20368;-69
2021/04/04 04:32:26;;;;;;;;;;;;;;;-5.07;100.00;101559.03;5051467;28;19925;-69
2021/04/04 04:34:54;;;;;;;;;;;;;;;-5.04;100.00;101560.78;5051171;28;20327;-71
2021/04/04 04:37:21;;;;;;;;;;;;;;;-5.02;100.00;101556.38;5050956;28;20013;-70
2021/04/04 04:39:47;;;;;;;;;;;;;;;-4.98;100.00;101552.84;5060275;28;20304;-69
2021/04/04 04:42:13;;;;;;;;;;;;;;;-4.92;100.00;101555.47;5042480;28;20311;-69
2021/04/04 04:44:41;;;;;;;;;;;;;;;-4.85;100.00;101550.13;5036503;28;19929;-69
2021/04/04 04:47:09;;;;;;;;;;;;;;;-4.85;100.00;101555.44;5046217;28;19925;-69
2021/04/04 04:49:35;;;;;;;;;;;;;;;-4.86;100.00;101546.59;5018901;28;19925;-69
2021/04/04 04:52:01;;;;;;;;;;;;;;;-4.82;100.00;101547.44;5036432;28;19932;-69
2021/04/04 04:54:28;;;;;;;;;;;;;;;-4.75;100.00;101551.84;5017554;28;19929;-71
2021/04/04 04:56:55;;;;;;;;;;;;;;;-4.71;100.00;101549.16;5053697;28;19925;-69
2021/04/04 04:59:21;;;;;;;;;;;;;;;-4.69;100.00;101556.25;5042570;28;19925;-69
2021/04/04 05:01:47;;;;;;;;;;;;;;;-4.61;100.00;101551.78;5035098;28;19936;-69
2021/04/04 05:04:14;;;;;;;;;;;;;;;-4.54;100.00;101549.09;5040014;28;19933;-69
2021/04/04 05:06:42;;;;;;;;;;;;;;;-4.47;100.00;101557.03;5054612;28;20366;-69
2021/04/04 05:09:09;;;;;;;;;;;;;;;-4.31;100.00;101558.69;5053196;28;19971;-69
2021/04/04 05:11:39;;;;;;;;;;;;;;;-4.22;100.00;101550.66;5054789;28;19985;-69
2021/04/04 05:14:05;;;;;;;;;;;;;;;-4.16;100.00;101546.22;5054313;28;20026;-70
2021/04/04 05:16:31;;;;;;;;;;;;;;;-4.03;100.00;101547.88;5050255;28;20011;-69
2021/04/04 05:18:57;;;;;;;;;;;;;;;-3.90;100.00;101540.69;5037031;28;19948;-70
2021/04/04 05:21:25;;;;;;;;;;;;;;;-3.74;100.00;101541.44;5043872;28;20404;-69
2021/04/04 05:23:54;;;;;;;;;;;;;;;-3.55;100.00;101543.03;5044830;28;19929;-70
2021/04/04 05:26:23;;;;;;;;;;;;;;;-3.23;100.00;101540.97;5036761;28;19932;-70
2021/04/04 05:28:49;;;;;;;;;;;;;;;-2.66;100.00;101545.56;5040003;28;20465;-70
2021/04/04 05:31:15;;;;;;;;;;;;;;;-1.99;100.00;101540.19;5053579;28;19932;-69
2021/04/04 05:33:41;;;;;;;;;;;;;;;-1.31;100.00;101531.03;5051806;28;19924;-70
2021/04/04 05:36:07;;;;;;;;;;;;;;;-0.73;100.00;101541.41;5049924;28;20277;-70
2021/04/04 05:38:33;;;;;;;;;;;;;;;-0.10;100.00;101532.00;5046607;28;19970;-69
2021/04/04 05:41:01;;;;;;;;;;;;;;;0.49;100.00;101522.50;5053582;28;19924;-68
2021/04/04 05:43:30;;;;;;;;;;;;;;;1.12;100.00;101520.78;5054082;28;19925;-69
2021/04/04 05:45:56;;;;;;;;;;;;;;;1.64;100.00;101518.31;5051936;28;19925;-69
2021/04/04 05:48:34;;;;;;;;;;;;;;;2.16;100.00;101518.44;5052037;28;20008;-70
2021/04/04 05:51:09;;;;;;;;;;;;;;;2.64;100.00;101502.50;5045308;28;19979;-69
2021/04/04 05:53:40;;;;;;;;;;;;;;;3.07;100.00;101500.06;5033868;28;19925;-70
2021/04/04 05:56:11;;;;;;;;;;;;;;;3.55;100.00;101503.59;5017879;28;19991;-69
2021/04/04 05:58:40;;;;;;;;;;;;;;;3.89;100.00;101496.88;5043130;28;19931;-70
2021/04/04 06:01:15;;;;;;;;;;;;;;;3.95;100.00;101505.53;5039033;28;20339;-70
2021/04/04 06:04:01;;;;;;;;;;;;;;;3.83;100.00;101493.50;5053592;28;20387;-70
2021/04/04 06:06:45;;;;;;;;;;;;;;;3.97;100.00;101498.31;5046657;28;20361;-69
2021/04/04 06:09:34;;;;;;;;;;;;;;;4.43;100.00;101500.00;5033852;28;19929;-69
2021/04/04 06:12:08;;;;;;;;;;;;;;;4.78;100.00;101498.44;5044743;28;19955;-69
2021/04/04 06:14:40;;;;;;;;;;;;;;;4.88;97.49;101498.03;5033763;28;19929;-69
2021/04/04 06:17:10;;;;;;;;;;;;;;;5.14;94.40;101494.16;5044579;28;19924;-69
2021/04/04 06:19:40;;;;;;;;;;;;;;;5.43;92.27;101497.31;5053495;28;19925;-69
2021/04/04 06:22:08;;;;;;;;;;;;;;;5.62;90.69;101497.28;5018224;28;19925;-70
2021/04/04 06:24:36;;;;;;;;;;;;;;;5.71;86.28;101496.84;5015629;28;19925;-70
2021/04/04 06:27:09;;;;;;;;;;;;;;;6.32;84.97;101484.88;5044154;28;19991;-70
2021/04/04 06:29:42;;;;;;;;;;;;;;;6.71;79.49;101488.28;5051510;28;19959;-70
2021/04/04 06:32:14;;;;;;;;;;;;;;;7.10;74.93;101478.13;5051340;28;19932;-71
2021/04/04 06:34:43;;;;;;;;;;;;;;;7.53;67.12;101483.81;5042551;28;20332;-71
2021/04/04 06:37:18;;;;;;;;;;;;;;;7.39;65.92;101481.91;5034863;28;20003;-71
2021/04/04 06:39:57;;;;;;;;;;;;;;;7.37;67.75;101483.81;5053447;28;19925;-71
2021/04/04 06:42:26;;;;;;;;;;;;;;;7.31;66.40;101484.13;5051419;28;20380;-71
2021/04/04 06:44:55;;;;;;;;;;;;;;;7.72;63.51;101478.22;5052619;28;19950;-71
2021/04/04 06:47:27;;;;;;;;;;;;;;;7.95;65.27;101486.84;5050472;28;19948;-71
2021/04/04 06:50:01;;;;;;;;;;;;;;;8.43;60.83;101478.63;5034371;28;19936;-71
2021/04/04 06:52:33;;;;;;;;;;;;;;;8.37;60.27;101477.16;5051206;28;19931;-72
2021/04/04 06:55:03;;;;;;;;;;;;;;;8.59;58.50;101484.00;5050276;28;19925;-71
2021/04/04 06:57:48;;;;;;;;;;;;;;;8.96;57.70;101476.34;5052599;28;19929;-70
2021/04/04 07:00:14;;;;;;;;;;;;;;;8.98;56.09;101477.09;5049028;28;19986;-71
2021/04/04 07:02:44;;;;;;;;;;;;;;;9.62;55.73;101480.25;5042910;28;20388;-71
2021/04/04 07:05:12;;;;;;;;;;;;;;;9.50;53.06;101475.63;5050546;28;19929;-71
2021/04/04 07:08:01;;;;;;;;;;;;;;;9.24;52.85;101475.47;5051058;28;20104;-71
2021/04/04 07:10:31;;;;;;;;;;;;;;;9.21;52.71;101473.81;5050756;28;19929;-71
2021/04/04 07:13:21;;;;;;;;;;;;;;;9.18;52.70;101479.44;5046225;28;19929;-71
2021/04/04 07:15:53;;;;;;;;;;;;;;;9.13;52.32;101480.69;4976238;28;19936;-72
2021/04/04 07:18:38;;;;;;;;;;;;;;;9.50;54.04;101467.47;5033577;28;19972;-71
2021/04/04 07:21:20;;;;;;;;;;;;;;;9.44;53.65;101470.59;5021684;28;19925;-71
2021/04/04 07:23:52;;;;;;;;;;;;;;;9.62;52.38;101468.53;5051148;28;20030;-71
2021/04/04 07:26:23;;;;;;;;;;;;;;;9.17;54.28;101472.28;5052083;28;20300;-71
2021/04/04 07:29:07;;;;;;;;;;;;;;;9.45;56.09;101467.78;5048642;28;19983;-71
2021/04/04 07:31:37;;;;;;;;;;;;;;;9.51;54.87;101462.00;5011451;28;19925;-72
2021/04/04 07:34:05;;;;;;;;;;;;;;;10.05;54.30;101454.84;5051864;28;19936;-71
2021/04/04 07:36:35;;;;;;;;;;;;;;;10.35;52.67;101460.03;5050992;28;19928;-71
2021/04/04 07:39:05;;;;;;;;;;;;;;;10.75;50.26;101453.69;5050535;28;19925;-72
2021/04/04 07:41:35;;;;;;;;;;;;;;;10.10;50.17;101447.28;5031913;28;20360;-71
2021/04/04 07:44:05;;;;;;;;;;;;;;;10.19;50.51;101446.63;5037931;28;20027;-71
2021/04/04 07:46:35;;;;;;;;;;;;;;;10.67;51.07;101440.63;5035208;28;19925;-71
2021/04/04 07:49:06;;;;;;;;;;;;;;;10.96;48.49;101435.00;5032544;28;19933;-72
2021/04/04 07:51:35;;;;;;;;;;;;;;;11.36;48.83;101436.69;5032908;28;20016;-71
2021/04/04 07:54:02;;;;;;;;;;;;;;;12.10;46.44;101435.78;5013609;28;20311;-71
2021/04/04 07:56:29;;;;;;;;;;;;;;;11.75;44.30;101431.13;5031748;28;19967;-71
2021/04/04 07:58:57;;;;;;;;;;;;;;;12.19;45.68;101425.03;5031749;28;20460;-71
2021/04/04 08:01:25;;;;;;;;;;;;;;;12.18;43.56;101427.88;5045793;28;20028;-71
2021/04/04 08:03:56;;;;;;;;;;;;;;;11.61;43.66;101422.16;5045195;28;20372;-71
2021/04/04 08:06:26;;;;;;;;;;;;;;;11.37;44.21;101424.81;5033516;28;19925;-70
2021/04/04 08:09:01;;;;;;;;;;;;;;;10.95;44.59;101419.66;5050634;28;20296;-71
2021/04/04 08:11:34;;;;;;;;;;;;;;;11.08;44.66;101422.38;5041365;28;19968;-69
2021/04/04 08:14:03;;;;;;;;;;;;;;;12.13;44.42;101420.09;5047970;28;19951;-71
2021/04/04 08:16:33;;;;;;;;;;;;;;;12.68;41.25;101417.63;5057737;28;19956;-71
2021/04/04 08:18:58;;;;;;;;;;;;;;;12.34;42.78;101416.66;5041675;28;20038;-72
2021/04/04 08:21:26;;;;;;;;;;;;;;;11.93;42.50;101409.81;5044534;28;19940;-72
2021/04/04 08:23:55;;;;;;;;;;;;;;;12.15;42.79;101409.06;5035980;28;19939;-72
2021/04/04 08:26:24;;;;;;;;;;;;;;;12.09;42.40;101413.09;5051751;28;19992;-72
2021/04/04 08:28:53;;;;;;;;;;;;;;;12.00;42.15;101414.69;5049021;28;20025;-72
2021/04/04 08:31:25;;;;;;;;;;;;;;;11.55;42.87;101414.44;5050289;28;19929;-71
2021/04/04 08:33:54;;;;;;;;;;;;;;;12.32;42.51;101408.63;5039685;28;19982;-71
2021/04/04 08:36:22;;;;;;;;;;;;;;;12.05;42.75;101408.88;5050215;28;19986;-71
2021/04/04 08:38:49;;;;;;;;;;;;;;;12.14;42.84;101412.78;5036269;28;20277;-71
2021/04/04 08:41:18;;;;;;;;;;;;;;;12.50;41.98;101403.59;5031139;28;19931;-71
2021/04/04 08:43:46;;;;;;;;;;;;;;;12.31;42.11;101406.88;5034567;28;19925;-71
2021/04/04 08:46:19;;;;;;;;;;;;;;;11.96;44.24;101401.44;5050321;28;20364;-69
2021/04/04 08:48:45;;;;;;;;;;;;;;;12.56;43.28;101408.56;5049914;28;19939;-71
2021/04/04 08:51:12;;;;;;;;;;;;;;;13.42;41.46;101401.78;5051137;28;19925;-72
2021/04/04 08:53:41;;;;;;;;;;;;;;;13.14;41.90;101406.72;5048175;28;20372;-71
2021/04/04 08:56:07;;;;;;;;;;;;;;;13.28;41.47;101400.13;5037987;28;19975;-71
2021/04/04 08:58:37;;;;;;;;;;;;;;;13.62;41.72;101402.84;5046773;28;19971;-71
2021/04/04 09:01:04;;;;;;;;;;;;;;;13.32;41.52;101398.88;5048781;28;19925;-71
2021/04/04 09:03:30;;;;;;;;;;;;;;;13.70;42.09;101392.16;5048928;28;19932;-71
2021/04/04 09:05:59;;;;;;;;;;;;;;;13.53;41.82;101394.41;5048409;28;19967;-71
2021/04/04 09:08:25;;;;;;;;;;;;;;;13.16;43.20;101392.00;5049423;28;19929;-72
2021/04/04 09:10:51;;;;;;;;;;;;;;;13.20;43.44;101385.28;5049224;28;20016;-71
2021/04/04 09:13:18;;;;;;;;;;;;;;;12.95;43.58;101389.16;5049247;28;20034;-71
2021/04/04 09:15:47;;;;;;;;;;;;;;;13.38;42.44;101382.06;5050773;28;19932;-70
2021/04/04 09:18:13;;;;;;;;;;;;;;;13.87;42.12;101375.22;5032994;28;19924;-70
2021/04/04 09:20:41;;;;;;;;;;;;;;;13.87;42.04;101375.22;5050802;28;19929;-71
2021/04/04 09:23:07;;;;;;;;;;;;;;;13.59;42.17;101378.53;5032858;28;19925;-72
2021/04/04 09:25:36;;;;;;;;;;;;;;;14.07;42.65;101381.72;5050412;28;20297;-71
2021/04/04 09:28:06;;;;;;;;;;;;;;;13.92;42.85;101372.09;5050817;28;19925;-71
2021/04/04 09:30:36;;;;;;;;;;;;;;;13.92;43.18;101365.78;5052004;28;19932;-72
2021/04/04 09:33:03;;;;;;;;;;;;;;;13.89;43.51;101367.75;5054553;28;19929;-71
2021/04/04 09:35:30;;;;;;;;;;;;;;;12.93;45.26;101368.47;5054310;28;20011;-71
2021/04/04 09:38:00;;;;;;;;;;;;;;;13.03;45.00;101366.72;5054505;28;19928;-71
2021/04/04 09:40:26;;;;;;;;;;;;;;;13.24;45.70;101372.25;5054307;28;19944;-71
2021/04/04 09:42:52;;;;;;;;;;;;;;;13.44;45.23;101377.97;5054068;28;20441;-71
2021/04/04 09:45:19;;;;;;;;;;;;;;;13.35;45.45;101374.97;5053985;28;19925;-71
2021/04/04 09:47:46;;;;;;;;;;;;;;;13.85;46.07;101371.75;5053372;28;20039;-71
2021/04/04 09:50:23;;;;;;;;;;;;;;;14.41;44.87;101367.00;5053683;28;19924;-71
2021/04/04 09:52:49;;;;;;;;;;;;;;;14.25;45.69;101362.00;5053952;28;20328;-71
2021/04/04 09:55:17;;;;;;;;;;;;;;;14.12;44.69;101353.16;5054075;28;19925;-72
2021/04/04 09:57:44;;;;;;;;;;;;;;;13.68;46.47;101362.28;5054259;28;19925;-71
2021/04/04 10:00:17;;;;;;;;;;;;;;;14.39;45.33;101355.31;5054052;28;19936;-72
2021/04/04 10:02:43;;;;;;;;;;;;;;;15.11;44.00;101358.13;5054162;28;19924;-72
2021/04/04 10:05:09;;;;;;;;;;;;;;;15.20;43.07;101349.09;5053690;28;19971;-71
2021/04/04 10:07:36;;;;;;;;;;;;;;;15.49;42.68;101346.44;5053823;28;19925;-70
2021/04/04 10:10:04;;;;;;;;;;;;;;;14.87;42.52;101352.03;5053722;28;19955;-70
2021/04/04 10:12:29;;;;;;;;;;;;;;;15.57;43.02;101341.09;5053703;28;19936;-71
2021/04/04 10:14:59;;;;;;;;;;;;;;;16.03;41.59;101343.31;5053580;28;19952;-72
2021/04/04 10:17:25;;;;;;;;;;;;;;;14.92;43.90;101342.53;5053486;28;19925;-71
2021/04/04 10:19:54;;;;;;;;;;;;;;;15.26;42.21;101331.25;5053699;28;19935;-72
2021/04/04 10:22:20;;;;;;;;;;;;;;;14.50;42.46;101317.00;5035723;28;19924;-71
2021/04/04 10:24:47;;;;;;;;;;;;;;;14.54;43.35;101337.59;5053447;28;19972;-71
2021/04/04 10:27:17;;;;;;;;;;;;;;;14.17;44.94;101326.31;5053370;28;19925;-71
2021/04/04 10:29:43;;;;;;;;;;;;;;;14.75;44.00;101319.47;5053442;28;19932;-71
2021/04/04 10:32:09;;;;;;;;;;;;;;;14.82;44.75;101307.84;5053420;28;19929;-71
2021/04/04 10:34:42;;;;;;;;;;;;;;;13.96;45.33;101307.19;5053504;28;20306;-71
2021/04/04 10:37:08;;;;;;;;;;;;;;;13.03;48.64;101318.53;5052918;28;19979;-71
2021/04/04 10:39:33;;;;;;;;;;;;;;;13.15;47.40;101313.06;5053250;28;19995;-71
2021/04/04 10:42:11;;;;;;;;;;;;;;;13.33;48.61;101314.25;5052332;28;19929;-71
2021/04/04 10:44:37;;;;;;;;;;;;;;;13.03;46.63;101304.91;5053001;28;19925;-71
2021/04/04 10:47:16;;;;;;;;;;;;;;;11.98;48.17;101310.53;5034896;28;19925;-71
2021/04/04 10:49:42;;;;;;;;;;;;;;;13.11;50.03;101301.56;5035342;28;19974;-71
2021/04/04 10:52:09;;;;;;;;;;;;;;;13.06;49.03;101277.38;5053139;28;19924;-71
2021/04/04 10:54:35;;;;;;;;;;;;;;;13.22;47.99;101284.28;5053133;28;19974;-71
2021/04/04 10:57:02;;;;;;;;;;;;;;;12.67;48.16;101287.00;5052434;28;19925;-72
2021/04/04 10:59:28;;;;;;;;;;;;;;;12.51;49.72;101290.09;5053049;28;20284;-72
2021/04/04 11:01:54;;;;;;;;;;;;;;;13.08;49.87;101285.47;5052976;28;19924;-71
2021/04/04 11:04:20;;;;;;;;;;;;;;;14.24;47.45;101278.34;5052732;28;20458;-71
2021/04/04 11:06:46;;;;;;;;;;;;;;;14.18;46.42;101284.38;5052268;28;20478;-71
2021/04/04 11:09:12;;;;;;;;;;;;;;;14.14;46.92;101272.00;5052683;28;19925;-72
2021/04/04 11:11:40;;;;;;;;;;;;;;;13.84;48.25;101271.81;5052707;28;20384;-71
2021/04/04 11:14:08;;;;;;;;;;;;;;;13.67;45.34;101258.72;5052484;28;20399;-71
2021/04/04 11:16:34;;;;;;;;;;;;;;;14.43;45.04;101255.75;5052370;28;20239;-71
2021/04/04 11:19:05;;;;;;;;;;;;;;;14.69;44.95;101279.91;5052667;28;19929;-71
2021/04/04 11:21:34;;;;;;;;;;;;;;;14.90;44.93;101263.44;5052207;28;19925;-71
2021/04/04 11:24:00;;;;;;;;;;;;;;;15.13;44.03;101253.09;5052499;28;19925;-70
2021/04/04 11:26:27;;;;;;;;;;;;;;;14.76;44.30;101242.81;5051801;28;19932;-71
2021/04/04 11:29:06;;;;;;;;;;;;;;;13.14;48.10;101257.66;5052510;28;19929;-71
2021/04/04 11:31:33;;;;;;;;;;;;;;;12.00;51.54;101262.34;5052139;28;19932;-71
2021/04/04 11:34:14;;;;;;;;;;;;;;;12.11;56.14;101252.47;5052752;28;19950;-71
2021/04/04 11:36:40;;;;;;;;;;;;;;;11.60;54.33;101248.22;5051411;28;19940;-71
2021/04/04 11:39:09;;;;;;;;;;;;;;;11.14;57.08;101242.59;5052405;28;20355;-71
2021/04/04 11:41:44;;;;;;;;;;;;;;;11.63;57.95;101243.41;5034353;28;19925;-72
2021/04/04 11:44:19;;;;;;;;;;;;;;;10.95;59.98;101237.69;5052089;28;19925;-72
2021/04/04 11:46:48;;;;;;;;;;;;;;;11.25;61.12;101228.22;5051713;28;19986;-71
2021/04/04 11:49:48;;;;;;;;;;;;;;;11.07;59.12;101225.03;5051963;28;19963;-71
2021/04/04 11:52:47;;;;;;;;;;;;;;;11.37;61.63;101220.94;5052057;28;19925;-71
2021/04/04 11:55:13;;;;;;;;;;;;;;;11.74;58.96;101212.66;5051807;28;19925;-71
2021/04/04 11:57:42;;;;;;;;;;;;;;;12.38;56.14;101225.72;5053463;28;19951;-71
2021/04/04 12:00:17;;;;;;;;;;;;;;;12.81;53.75;101195.97;5053823;28;20019;-72
2021/04/04 12:02:48;;;;;;;;;;;;;;;13.03;51.90;101198.63;5051337;28;19968;-71
2021/04/04 12:05:15;;;;;;;;;;;;;;;13.03;53.24;101203.22;5051537;28;19932;-71
2021/04/04 12:07:44;;;;;;;;;;;;;;;13.27;52.57;101191.19;5051505;28;19925;-71
2021/04/04 12:10:14;;;;;;;;;;;;;;;13.60;51.08;101175.69;5051647;28;19924;-71
2021/04/04 12:12:40;;;;;;;;;;;;;;;13.47;48.82;101168.59;5051311;28;19936;-71
2021/04/04 12:15:06;;;;;;;;;;;;;;;14.29;47.30;101166.00;5051454;28;20230;-71
2021/04/04 12:17:32;;;;;;;;;;;;;;;14.91;45.92;101161.25;5051243;28;19925;-71
2021/04/04 12:19:59;;;;;;;;;;;;;;;14.18;46.90;101158.78;5051584;28;19952;-71
2021/04/04 12:22:37;;;;;;;;;;;;;;;14.79;45.46;101149.63;5051527;28;19928;-71
2021/04/04 12:25:04;;;;;;;;;;;;;;;14.58;45.49;101146.97;5051471;28;19925;-71
2021/04/04 12:27:30;;;;;;;;;;;;;;;14.44;45.94;101142.75;5051135;28;19929;-71
2021/04/04 12:29:57;;;;;;;;;;;;;;;15.23;45.59;101147.34;5051202;28;20027;-71
2021/04/04 12:32:24;;;;;;;;;;;;;;;15.69;42.10;101143.94;5051253;28;19925;-71
2021/04/04 12:34:50;;;;;;;;;;;;;;;15.53;43.46;101134.47;5051267;28;19941;-71
2021/04/04 12:37:18;;;;;;;;;;;;;;;14.90;44.17;101129.50;5051022;28;19925;-70
2021/04/04 12:39:44;;;;;;;;;;;;;;;15.22;44.44;101126.47;5051325;28;19925;-71